Time;durP1;ratioP1;P1;durP2;ratioP2;P2;SDS_P1;SDS_P2;PMS_P1;PMS_P2;Temp;Humidity;BMP_temperature;BMP_pressure;BME280_temperature;BME280_humidity;BME280_pressure;Samples;Min_cycle;Max_cycle;Signal;HPM_P1;HPM_P2
2021/03/11 00:00:47;;;;;;;1.50;0.90;;;15.30;66.80;;;;;;5077385;28;20448;-52
2021/03/11 00:03:19;;;;;;;0.80;0.80;;;15.50;67.30;;;;;;5079353;28;20472;-52
2021/03/11 00:05:49;;;;;;;1.67;0.90;;;15.40;68.70;;;;;;5070832;28;20452;-51
2021/03/11 00:08:19;;;;;;;1.37;0.80;;;15.20;63.60;;;;;;5077858;28;20452;-52
2021/03/11 00:10:49;;;;;;;1.50;1.03;;;15.10;65.50;;;;;;5068832;28;20524;-50
2021/03/11 00:13:21;;;;;;;1.53;1.43;;;14.90;66.50;;;;;;5072112;28;20451;-51
2021/03/11 00:15:51;;;;;;;2.70;2.40;;;14.80;75.80;;;;;;5077277;28;20448;-51
2021/03/11 00:18:23;;;;;;;1.50;1.27;;;14.80;83.20;;;;;;5072289;28;20528;-53
2021/03/11 00:20:53;;;;;;;1.60;1.23;;;14.60;80.10;;;;;;5072280;28;20809;-52
2021/03/11 00:23:35;;;;;;;0.90;0.80;;;14.40;80.00;;;;;;5064099;28;20432;-51
2021/03/11 00:26:06;;;;;;;1.03;1.03;;;14.10;81.30;;;;;;5075426;28;20460;-50
2021/03/11 00:28:37;;;;;;;1.23;1.13;;;13.90;80.80;;;;;;5072244;28;20460;-50
2021/03/11 00:31:07;;;;;;;2.30;1.00;;;13.80;81.50;;;;;;5070603;28;20456;-46
2021/03/11 00:33:37;;;;;;;1.23;1.13;;;13.80;84.40;;;;;;5081008;28;20443;-46
2021/03/11 00:36:08;;;;;;;1.90;1.07;;;13.60;86.20;;;;;;5083677;28;20505;-47
2021/03/11 00:38:38;;;;;;;1.73;1.30;;;13.40;86.70;;;;;;5079695;28;20549;-46
2021/03/11 00:41:10;;;;;;;1.10;1.00;;;13.30;86.40;;;;;;5078090;28;20468;-48
2021/03/11 00:43:42;;;;;;;1.20;1.03;;;13.20;87.50;;;;;;5077110;28;20466;-47
2021/03/11 00:46:12;;;;;;;1.63;0.93;;;13.00;87.10;;;;;;5080477;28;20463;-52
2021/03/11 00:48:42;;;;;;;2.40;1.23;;;13.00;90.10;;;;;;5082433;28;20467;-50
2021/03/11 00:51:12;;;;;;;2.00;1.03;;;12.80;90.50;;;;;;5064580;28;20593;-50
2021/03/11 00:53:54;;;;;;;1.03;1.03;;;12.90;88.40;;;;;;5067294;28;20433;-50
2021/03/11 00:56:24;;;;;;;1.23;0.73;;;12.90;90.60;;;;;;5064435;28;20503;-49
2021/03/11 00:58:56;;;;;;;1.20;0.80;;;12.80;88.00;;;;;;5063745;28;20488;-51
2021/03/11 01:01:26;;;;;;;1.90;1.20;;;12.80;89.40;;;;;;5061490;28;20455;-48
2021/03/11 01:03:56;;;;;;;4.57;1.33;;;12.70;91.10;;;;;;5065819;28;20466;-52
2021/03/11 01:06:26;;;;;;;1.57;1.30;;;12.60;90.80;;;;;;5078712;28;20462;-52
2021/03/11 01:08:56;;;;;;;1.53;1.07;;;12.60;91.60;;;;;;5079549;28;20444;-51
2021/03/11 01:11:26;;;;;;;4.97;1.10;;;12.50;92.30;;;;;;5076891;28;20520;-50
2021/03/11 01:13:57;;;;;;;1.17;1.07;;;12.40;90.70;;;;;;5069123;28;20482;-48
2021/03/11 01:16:27;;;;;;;1.60;1.17;;;12.40;91.30;;;;;;5063988;28;20455;-52
2021/03/11 01:19:18;;;;;;;0.87;0.87;;;12.40;92.90;;;;;;5062974;28;20484;-48
2021/03/11 01:21:50;;;;;;;1.47;1.37;;;12.20;93.30;;;;;;5062384;28;20466;-51
2021/03/11 01:24:20;;;;;;;1.63;1.10;;;12.20;93.80;;;;;;5066631;28;20451;-50
2021/03/11 01:26:50;;;;;;;1.27;1.17;;;12.30;93.40;;;;;;5078102;28;20481;-50
2021/03/11 01:29:23;;;;;;;0.93;0.93;;;12.20;93.90;;;;;;5068030;28;20498;-52
2021/03/11 01:31:53;;;;;;;1.10;1.10;;;12.20;93.30;;;;;;5075451;28;20454;-51
2021/03/11 01:34:23;;;;;;;0.93;0.93;;;12.10;93.40;;;;;;5076896;28;20454;-51
2021/03/11 01:36:53;;;;;;;1.47;1.03;;;12.00;93.50;;;;;;5081095;28;20450;-51
2021/03/11 01:39:23;;;;;;;1.57;1.30;;;12.10;93.90;;;;;;5074885;28;20490;-46
2021/03/11 01:41:53;;;;;;;1.33;1.23;;;12.10;93.80;;;;;;5080958;28;20512;-48
2021/03/11 01:44:25;;;;;;;3.00;0.93;;;12.10;95.50;;;;;;5078535;28;20466;-47
2021/03/11 01:46:55;;;;;;;3.07;1.90;;;12.00;95.60;;;;;;5069914;28;20481;-50
2021/03/11 01:49:25;;;;;;;2.20;1.40;;;12.10;94.70;;;;;;5078241;28;20461;-44
2021/03/11 01:51:55;;;;;;;2.23;1.80;;;12.00;94.50;;;;;;5072979;28;20519;-48
2021/03/11 01:54:40;;;;;;;1.65;1.55;;;12.00;94.20;;;;;;5077534;28;20443;-47
2021/03/11 01:57:10;;;;;;;2.00;1.80;;;11.80;94.70;;;;;;5075762;28;20207;-51
2021/03/11 01:59:41;;;;;;;1.77;1.53;;;11.70;95.80;;;;;;5073433;28;20493;-48
2021/03/11 02:02:12;;;;;;;2.70;1.53;;;11.60;95.50;;;;;;5082187;28;20454;-45
2021/03/11 02:04:42;;;;;;;1.90;1.73;;;11.50;96.60;;;;;;5082538;28;20470;-50
2021/03/11 02:07:12;;;;;;;1.50;1.40;;;11.60;96.20;;;;;;5073198;28;20247;-48
2021/03/11 02:09:42;;;;;;;1.40;1.30;;;11.50;96.70;;;;;;5063185;28;20194;-48
2021/03/11 02:12:17;;;;;;;2.20;2.00;;;11.40;97.20;;;;;;5081459;28;20218;-53
2021/03/11 02:14:58;;;;;;;2.50;2.30;;;11.40;97.40;;;;;;5086436;28;20210;-50
2021/03/11 02:17:33;;;;;;;2.50;2.30;;;11.40;96.60;;;;;;5066080;28;20535;-50
2021/03/11 02:20:29;;;;;;;3.08;2.80;;;11.40;97.40;;;;;;5067053;28;20481;-50
2021/03/11 02:23:17;;;;;;;2.50;2.28;;;11.30;97.10;;;;;;5084600;28;20663;-51
2021/03/11 02:25:58;;;;;;;2.40;2.20;;;11.30;97.00;;;;;;5073031;28;20237;-51
2021/03/11 02:28:34;;;;;;;2.28;2.10;;;11.30;97.20;;;;;;5069565;28;20211;-48
2021/03/11 02:31:07;;;;;;;3.10;2.78;;;11.20;97.90;;;;;;5078635;28;20261;-50
2021/03/11 02:33:38;;;;;;;3.88;3.03;;;11.10;97.50;;;;;;5066180;28;20211;-48
2021/03/11 02:36:09;;;;;;;3.70;2.90;;;11.10;98.30;;;;;;5080138;28;20266;-51
2021/03/11 02:38:39;;;;;;;14.60;13.07;;;11.10;98.10;;;;;;5079470;28;20216;-48
2021/03/11 02:41:12;;;;;;;21.90;18.90;;;11.10;97.80;;;;;;5078478;28;20258;-47
2021/03/11 02:43:42;;;;;;;16.25;14.05;;;11.00;98.80;;;;;;5067608;28;20460;-48
2021/03/11 02:46:14;;;;;;;13.30;12.00;;;11.00;98.90;;;;;;5067997;28;20213;-48
2021/03/11 02:48:46;;;;;;;10.52;9.52;;;10.90;99.60;;;;;;5079503;28;20591;-49
2021/03/11 02:51:18;;;;;;;6.07;5.53;;;10.90;99.90;;;;;;5066080;28;20250;-48
2021/03/11 02:53:48;;;;;;;5.30;4.60;;;10.90;99.50;;;;;;5078626;28;20208;-47
2021/03/11 02:56:19;;;;;;;5.22;4.68;;;10.90;99.90;;;;;;5074493;28;20202;-54
2021/03/11 02:58:50;;;;;;;5.23;4.80;;;10.80;99.90;;;;;;5077615;28;20300;-52
2021/03/11 03:01:22;;;;;;;5.10;4.13;;;10.70;99.90;;;;;;5077427;28;20539;-51
2021/03/11 03:03:53;;;;;;;3.92;3.63;;;10.80;99.60;;;;;;5071029;28;20450;-51
2021/03/11 03:06:24;;;;;;;4.50;4.07;;;10.70;99.90;;;;;;5068710;28;20204;-49
2021/03/11 03:08:55;;;;;;;3.88;3.63;;;10.70;99.90;;;;;;5069037;28;20457;-53
2021/03/11 03:11:25;;;;;;;3.75;3.45;;;10.90;99.60;;;;;;5071374;28;20227;-47
2021/03/11 03:13:56;;;;;;;3.10;2.80;;;10.90;99.10;;;;;;5081602;28;20249;-53
2021/03/11 03:16:27;;;;;;;3.72;3.10;;;10.90;99.10;;;;;;5075424;28;20235;-52
2021/03/11 03:18:59;;;;;;;3.40;3.05;;;10.80;99.30;;;;;;5068450;28;20286;-51
2021/03/11 03:21:29;;;;;;;3.45;3.15;;;10.80;99.70;;;;;;5068604;28;20210;-53
2021/03/11 03:24:00;;;;;;;2.72;2.53;;;10.70;99.90;;;;;;5077259;28;20195;-49
2021/03/11 03:26:30;;;;;;;2.78;2.58;;;10.70;99.70;;;;;;5072054;28;20214;-54
2021/03/11 03:29:00;;;;;;;1.52;1.45;;;10.70;99.10;;;;;;5074363;28;20199;-54
2021/03/11 03:31:32;;;;;;;1.98;1.80;;;10.70;98.50;;;;;;5064491;28;20274;-54
2021/03/11 03:34:03;;;;;;;6.18;1.98;;;10.70;99.00;;;;;;5064890;28;20234;-53
2021/03/11 03:36:33;;;;;;;1.63;1.52;;;10.70;98.80;;;;;;5068649;28;20348;-54
2021/03/11 03:39:03;;;;;;;2.22;2.03;;;10.60;99.10;;;;;;5067011;28;20215;-54
2021/03/11 03:41:36;;;;;;;1.70;1.60;;;10.60;98.80;;;;;;5071513;28;20328;-52
2021/03/11 03:44:11;;;;;;;2.25;1.80;;;10.60;99.20;;;;;;5081771;28;20262;-52
2021/03/11 03:46:43;;;;;;;2.15;1.80;;;10.60;99.20;;;;;;5067499;28;20276;-52
2021/03/11 03:49:15;;;;;;;1.60;1.50;;;10.60;99.90;;;;;;5072480;28;20208;-47
2021/03/11 03:51:50;;;;;;;1.65;1.55;;;10.60;99.90;;;;;;5076954;28;20197;-55
2021/03/11 03:54:24;;;;;;;2.08;1.77;;;10.60;99.90;;;;;;5079409;28;20191;-51
2021/03/11 03:56:59;;;;;;;2.25;1.73;;;10.50;99.90;;;;;;5066228;28;20632;-47
2021/03/11 03:59:32;;;;;;;2.75;1.42;;;10.50;99.90;;;;;;5072441;28;20243;-51
2021/03/11 04:02:05;;;;;;;1.67;1.58;;;10.50;99.90;;;;;;5074473;28;20223;-52
2021/03/11 04:04:38;;;;;;;1.60;1.50;;;10.50;99.90;;;;;;5076580;28;20201;-54
2021/03/11 04:07:11;;;;;;;1.67;1.58;;;10.50;99.90;;;;;;5075501;28;20452;-52
2021/03/11 04:09:42;;;;;;;1.65;1.55;;;10.50;99.90;;;;;;5069954;28;20205;-54
2021/03/11 04:12:13;;;;;;;1.60;1.50;;;10.50;99.90;;;;;;5067400;28;20221;-52
2021/03/11 04:14:44;;;;;;;1.65;1.55;;;10.30;99.90;;;;;;5083506;28;20662;-50
2021/03/11 04:17:17;;;;;;;1.33;1.23;;;10.20;99.90;;;;;;5079480;28;20320;-52
2021/03/11 04:19:49;;;;;;;1.50;1.40;;;10.30;99.90;;;;;;5065031;28;20239;-53
2021/03/11 04:22:20;;;;;;;1.75;1.48;;;10.40;99.90;;;;;;5066001;28;20192;-51
2021/03/11 04:24:50;;;;;;;2.58;2.38;;;10.40;99.90;;;;;;5072408;28;20270;-52
2021/03/11 04:27:21;;;;;;;1.80;1.70;;;10.40;99.90;;;;;;5071776;28;20249;-53
2021/03/11 04:29:52;;;;;;;1.52;1.33;;;10.30;99.90;;;;;;5066749;28;20261;-55
2021/03/11 04:32:23;;;;;;;2.40;1.30;;;10.10;99.90;;;;;;5071332;28;20203;-54
2021/03/11 04:34:53;;;;;;;3.45;1.30;;;10.00;99.90;;;;;;5064090;28;20640;-55
2021/03/11 04:37:24;;;;;;;2.47;1.20;;;10.00;99.90;;;;;;5076174;28;20201;-54
2021/03/11 04:39:54;;;;;;;1.73;1.23;;;9.90;99.90;;;;;;5083780;28;20221;-55
2021/03/11 04:42:25;;;;;;;1.70;1.20;;;9.90;99.90;;;;;;5082367;28;20257;-49
2021/03/11 04:44:55;;;;;;;1.20;1.13;;;9.80;99.90;;;;;;5069260;28;20201;-53
2021/03/11 04:47:27;;;;;;;1.90;1.33;;;9.80;99.90;;;;;;5072740;28;20210;-52
2021/03/11 04:49:58;;;;;;;2.15;1.00;;;9.80;99.90;;;;;;5071877;28;20230;-51
2021/03/11 04:52:28;;;;;;;1.60;1.50;;;9.70;99.90;;;;;;5069658;28;20303;-55
2021/03/11 04:55:01;;;;;;;2.70;2.20;;;9.60;99.90;;;;;;5070012;28;20201;-51
2021/03/11 04:57:31;;;;;;;1.98;1.88;;;9.60;99.90;;;;;;5080070;28;20196;-50
2021/03/11 05:00:02;;;;;;;2.28;1.70;;;9.50;99.90;;;;;;5073221;28;20697;-53
2021/03/11 05:02:35;;;;;;;2.25;2.08;;;9.50;99.90;;;;;;5076885;28;20258;-54
2021/03/11 05:05:10;;;;;;;2.75;2.55;;;9.30;99.90;;;;;;5075675;28;20202;-51
2021/03/11 05:07:40;;;;;;;1.70;1.60;;;9.20;99.90;;;;;;5070863;28;20197;-54
2021/03/11 05:10:11;;;;;;;1.65;1.40;;;9.20;99.90;;;;;;5083093;28;20227;-53
2021/03/11 05:12:41;;;;;;;1.65;1.55;;;9.10;99.90;;;;;;5079104;28;20201;-51
2021/03/11 05:15:12;;;;;;;2.97;2.47;;;9.00;99.90;;;;;;5072914;28;20209;-48
2021/03/11 05:17:47;;;;;;;2.00;1.80;;;9.00;99.90;;;;;;5081763;28;20229;-52
2021/03/11 05:20:18;;;;;;;2.05;1.80;;;8.90;99.90;;;;;;5079121;28;20229;-48
2021/03/11 05:22:48;;;;;;;1.83;1.70;;;8.80;99.90;;;;;;5078673;28;20209;-55
2021/03/11 05:25:21;;;;;;;1.35;1.30;;;8.70;99.90;;;;;;5076526;28;20280;-52
2021/03/11 05:27:51;;;;;;;13.82;12.40;;;8.60;99.90;;;;;;5061166;28;20237;-51
2021/03/11 05:30:22;;;;;;;7.40;6.72;;;8.50;99.90;;;;;;5064965;28;20263;-54
2021/03/11 05:32:53;;;;;;;8.13;7.43;;;8.50;99.90;;;;;;5065724;28;20211;-54
2021/03/11 05:35:24;;;;;;;7.60;7.00;;;8.50;99.90;;;;;;5072870;28;20266;-55
2021/03/11 05:37:54;;;;;;;4.93;4.53;;;8.40;99.90;;;;;;5072886;28;20607;-53
2021/03/11 05:40:25;;;;;;;5.22;4.78;;;8.40;99.90;;;;;;5076470;28;20221;-54
2021/03/11 05:42:57;;;;;;;4.50;4.10;;;8.30;99.90;;;;;;5079357;28;20270;-55
2021/03/11 05:45:28;;;;;;;4.70;4.32;;;8.30;99.90;;;;;;5079977;28;20287;-51
2021/03/11 05:48:00;;;;;;;3.40;3.05;;;8.20;99.90;;;;;;5084517;28;20208;-54
2021/03/11 05:50:31;;;;;;;4.53;4.22;;;8.20;99.90;;;;;;5075726;28;20216;-54
2021/03/11 05:53:01;;;;;;;4.88;4.47;;;8.20;99.90;;;;;;5084664;28;20254;-55
2021/03/11 05:55:31;;;;;;;4.47;4.07;;;8.00;99.90;;;;;;5070228;28;20267;-53
2021/03/11 05:58:02;;;;;;;3.28;3.08;;;7.90;99.90;;;;;;5074703;28;20654;-54
2021/03/11 06:00:32;;;;;;;2.90;2.40;;;7.90;99.90;;;;;;5070522;28;20233;-52
2021/03/11 06:03:05;;;;;;;3.05;2.10;;;8.00;99.90;;;;;;5077454;28;20228;-55
2021/03/11 06:05:35;;;;;;;2.58;2.38;;;7.90;99.90;;;;;;5073553;28;20202;-55
2021/03/11 06:08:09;;;;;;;2.50;2.30;;;7.80;99.90;;;;;;5082897;28;20201;-51
2021/03/11 06:10:42;;;;;;;2.70;2.50;;;7.80;99.90;;;;;;5078466;28;20194;-55
2021/03/11 06:13:12;;;;;;;3.90;3.50;;;7.80;99.90;;;;;;5085760;28;20300;-54
2021/03/11 06:15:44;;;;;;;3.70;3.40;;;7.70;99.90;;;;;;5077804;28;20202;-55
2021/03/11 06:18:18;;;;;;;4.25;2.97;;;7.60;99.90;;;;;;5082963;28;20270;-55
2021/03/11 06:20:49;;;;;;;3.50;3.20;;;7.60;99.90;;;;;;5085527;28;20228;-56
2021/03/11 06:23:19;;;;;;;2.30;2.10;;;7.50;99.90;;;;;;5081649;28;20205;-55
2021/03/11 06:25:54;;;;;;;2.67;2.47;;;7.50;99.90;;;;;;5076849;28;20655;-56
2021/03/11 06:28:52;;;;;;;3.78;3.10;;;7.40;99.90;;;;;;5084774;28;20672;-56
2021/03/11 06:31:23;;;;;;;2.67;2.42;;;7.40;99.90;;;;;;5083794;28;20224;-56
2021/03/11 06:33:56;;;;;;;2.30;1.95;;;7.30;99.90;;;;;;5080174;28;20201;-56
2021/03/11 06:36:28;;;;;;;2.60;2.40;;;7.30;99.90;;;;;;5085655;28;20205;-56
2021/03/11 06:39:28;;;;;;;2.05;1.95;;;7.20;99.90;;;;;;5081205;28;20565;-55
2021/03/11 06:41:59;;;;;;;2.33;2.15;;;7.10;99.90;;;;;;5083483;28;20210;-55
2021/03/11 06:44:38;;;;;;;2.10;2.00;;;7.10;99.90;;;;;;5070320;28;20566;-56
2021/03/11 06:47:10;;;;;;;2.55;2.17;;;7.00;99.90;;;;;;5077401;28;20202;-55
2021/03/11 06:49:57;;;;;;;2.80;2.60;;;6.90;99.90;;;;;;5066403;28;20210;-56
2021/03/11 06:52:28;;;;;;;2.85;1.88;;;6.80;99.90;;;;;;5069158;28;20248;-56
2021/03/11 06:55:00;;;;;;;2.53;1.85;;;6.80;99.90;;;;;;5078686;28;20643;-56
2021/03/11 06:57:32;;;;;;;2.63;2.33;;;6.70;99.90;;;;;;5076871;28;20201;-56
2021/03/11 07:00:04;;;;;;;2.10;1.95;;;6.70;99.90;;;;;;5085021;28;20573;-55
2021/03/11 07:02:34;;;;;;;3.00;2.80;;;6.60;99.90;;;;;;5084811;28;20209;-54
2021/03/11 07:05:15;;;;;;;4.72;4.07;;;6.60;99.90;;;;;;5080691;28;20213;-57
2021/03/11 07:07:45;;;;;;;2.85;2.55;;;6.60;99.90;;;;;;5079408;28;20202;-57
2021/03/11 07:10:26;;;;;;;2.80;2.60;;;6.60;99.90;;;;;;5085591;28;20235;-56
2021/03/11 07:12:59;;;;;;;3.45;2.30;;;6.60;99.90;;;;;;5084605;28;20201;-54
2021/03/11 07:15:30;;;;;;;2.65;2.10;;;6.60;99.90;;;;;;5076342;28;20210;-56
2021/03/11 07:18:01;;;;;;;7.68;2.97;;;6.50;99.90;;;;;;5068017;28;20230;-55
2021/03/11 07:20:35;;;;;;;2.83;2.25;;;6.60;99.90;;;;;;5082391;28;20229;-55
2021/03/11 07:23:09;;;;;;;3.45;2.40;;;6.60;99.90;;;;;;5079192;28;20208;-57
2021/03/11 07:25:40;;;;;;;2.55;1.65;;;6.70;99.90;;;;;;5067596;28;20206;-56
2021/03/11 07:28:11;;;;;;;2.00;1.90;;;6.60;99.90;;;;;;5081248;28;20216;-55
2021/03/11 07:30:51;;;;;;;2.20;2.00;;;6.60;99.90;;;;;;5083127;28;20258;-57
2021/03/11 07:33:22;;;;;;;2.97;2.13;;;6.60;99.90;;;;;;5071138;28;20212;-57
2021/03/11 07:35:56;;;;;;;2.15;2.03;;;6.60;99.90;;;;;;5080238;28;20258;-56
2021/03/11 07:38:28;;;;;;;3.33;2.50;;;6.60;99.90;;;;;;5083708;28;20209;-55
2021/03/11 07:41:00;;;;;;;3.95;2.63;;;6.60;99.90;;;;;;5084592;28;20242;-56
2021/03/11 07:43:32;;;;;;;2.97;2.53;;;6.60;99.90;;;;;;5084046;28;20205;-56
2021/03/11 07:46:03;;;;;;;2.30;2.20;;;6.50;99.90;;;;;;5070292;28;20256;-55
2021/03/11 07:48:34;;;;;;;2.60;2.40;;;6.40;99.90;;;;;;5066129;28;20205;-54
2021/03/11 07:51:06;;;;;;;3.15;2.40;;;6.30;99.90;;;;;;5067822;28;20210;-55
2021/03/11 07:53:41;;;;;;;2.60;2.40;;;6.30;99.90;;;;;;5078459;28;20205;-56
2021/03/11 07:56:12;;;;;;;3.40;3.10;;;6.20;99.90;;;;;;5069025;28;20229;-56
2021/03/11 07:58:44;;;;;;;2.22;2.13;;;6.20;99.90;;;;;;5084571;28;20355;-58
2021/03/11 08:01:15;;;;;;;2.30;2.08;;;6.10;99.90;;;;;;5078062;28;20297;-54
2021/03/11 08:03:49;;;;;;;2.33;2.08;;;6.00;99.90;;;;;;5078991;28;20201;-56
2021/03/11 08:06:24;;;;;;;2.08;1.90;;;5.90;99.90;;;;;;5069077;28;20281;-56
2021/03/11 08:08:54;;;;;;;2.67;1.80;;;5.90;99.90;;;;;;5071493;28;20201;-56
2021/03/11 08:11:36;;;;;;;2.00;1.80;;;5.80;99.90;;;;;;5083225;28;20205;-57
2021/03/11 08:14:22;;;;;;;2.05;1.58;;;5.80;99.90;;;;;;5084472;28;20343;-57
2021/03/11 08:16:54;;;;;;;2.97;1.63;;;5.80;99.90;;;;;;5082683;28;20220;-57
2021/03/11 08:19:51;;;;;;;3.63;1.92;;;5.80;99.90;;;;;;5079736;28;20692;-56
2021/03/11 08:22:57;;;;;;;2.85;2.28;;;5.80;99.90;;;;;;5075718;28;20208;-57
2021/03/11 08:25:48;;;;;;;2.75;2.40;;;5.80;99.90;;;;;;5077469;28;20202;-57
2021/03/11 08:28:40;;;;;;;2.38;2.17;;;5.80;99.90;;;;;;5081206;28;20216;-55
2021/03/11 08:31:11;;;;;;;2.20;2.05;;;6.00;99.90;;;;;;5070494;28;20193;-56
2021/03/11 08:33:54;;;;;;;2.75;2.47;;;6.00;99.90;;;;;;5069504;28;20194;-54
2021/03/11 08:36:30;;;;;;;2.30;2.10;;;5.90;99.90;;;;;;5082602;28;20205;-55
2021/03/11 08:39:00;;;;;;;4.88;2.70;;;5.80;99.90;;;;;;5081144;28;20254;-55
2021/03/11 08:41:34;;;;;;;2.95;2.22;;;5.70;99.90;;;;;;5074640;28;20244;-56
2021/03/11 08:44:05;;;;;;;2.92;2.60;;;5.60;99.90;;;;;;5074483;28;20205;-55
2021/03/11 08:46:52;;;;;;;3.85;2.80;;;5.60;99.90;;;;;;5082726;28;20209;-54
2021/03/11 08:49:43;;;;;;;2.95;2.47;;;5.60;99.90;;;;;;5074195;28;20642;-55
2021/03/11 08:52:41;;;;;;;2.85;2.60;;;5.50;99.90;;;;;;5082789;28;20227;-53
2021/03/11 08:55:39;;;;;;;4.55;2.75;;;5.40;99.90;;;;;;5082339;28;20205;-58
2021/03/11 08:58:29;;;;;;;5.00;2.75;;;5.40;99.90;;;;;;5080475;28;20201;-58
2021/03/11 09:01:01;;;;;;;3.83;3.00;;;5.40;99.90;;;;;;5073058;28;20229;-58
2021/03/11 09:03:51;;;;;;;3.47;3.10;;;5.40;99.90;;;;;;5077227;28;20210;-53
2021/03/11 09:06:41;;;;;;;3.30;2.67;;;5.30;99.90;;;;;;5077054;28;20211;-56
2021/03/11 09:09:12;;;;;;;2.63;2.45;;;5.30;99.90;;;;;;5082734;28;20209;-57
2021/03/11 09:11:53;;;;;;;2.80;2.60;;;5.20;99.90;;;;;;5077143;28;20228;-56
2021/03/11 09:14:26;;;;;;;2.88;2.67;;;5.20;99.90;;;;;;5080951;28;20201;-56
2021/03/11 09:17:06;;;;;;;3.00;2.70;;;5.20;99.90;;;;;;5082608;28;20219;-56
2021/03/11 09:20:00;;;;;;;3.20;2.90;;;5.40;99.90;;;;;;5080991;28;20264;-52
2021/03/11 09:22:32;;;;;;;3.38;2.80;;;5.30;99.90;;;;;;5070851;28;20217;-58
2021/03/11 09:25:14;;;;;;;3.20;2.80;;;5.20;99.90;;;;;;5083794;28;20211;-56
2021/03/11 09:27:55;;;;;;;3.00;2.70;;;5.10;99.90;;;;;;5074443;28;20264;-55
2021/03/11 09:30:29;;;;;;;3.55;2.97;;;5.10;99.90;;;;;;5082730;28;20231;-55
2021/03/11 09:33:08;;;;;;;3.75;3.08;;;5.00;99.90;;;;;;5082641;28;20250;-55
2021/03/11 09:35:39;;;;;;;5.60;3.15;;;5.00;99.90;;;;;;5079963;28;20277;-55
2021/03/11 09:38:11;;;;;;;3.33;2.80;;;5.00;99.90;;;;;;5078957;28;20197;-57
2021/03/11 09:40:42;;;;;;;5.43;3.20;;;5.00;99.90;;;;;;5082613;28;20274;-57
2021/03/11 09:43:21;;;;;;;4.07;3.30;;;5.00;99.90;;;;;;5081512;28;20201;-58
2021/03/11 09:45:56;;;;;;;3.55;3.25;;;5.10;99.90;;;;;;5082804;28;20600;-56
2021/03/11 09:48:28;;;;;;;5.43;4.10;;;5.10;99.90;;;;;;5062874;28;20208;-58
2021/03/11 09:51:04;;;;;;;4.07;3.65;;;5.20;99.90;;;;;;5070619;28;20209;-57
2021/03/11 09:53:37;;;;;;;5.57;4.28;;;5.20;99.90;;;;;;5082641;28;20662;-58
2021/03/11 09:56:08;;;;;;;4.78;4.38;;;5.10;99.90;;;;;;5067170;28;20205;-56
2021/03/11 09:58:44;;;;;;;4.80;3.92;;;5.20;99.90;;;;;;5082018;28;20205;-57
2021/03/11 10:01:24;;;;;;;5.05;4.55;;;5.20;99.90;;;;;;5082389;28;21166;-58
2021/03/11 10:03:55;;;;;;;4.88;4.47;;;5.20;99.90;;;;;;5083212;28;20204;-56
2021/03/11 10:06:26;;;;;;;5.10;4.60;;;5.20;99.90;;;;;;5075616;28;20197;-57
2021/03/11 10:08:57;;;;;;;5.25;4.72;;;5.20;99.90;;;;;;5081037;28;20201;-57
2021/03/11 10:11:33;;;;;;;6.07;4.40;;;5.10;99.90;;;;;;5081972;28;20224;-54
2021/03/11 10:14:14;;;;;;;4.40;3.97;;;5.20;99.90;;;;;;5083351;28;20279;-58
2021/03/11 10:16:46;;;;;;;5.20;4.70;;;5.20;99.90;;;;;;5067859;28;20201;-56
2021/03/11 10:19:19;;;;;;;4.93;4.53;;;5.30;99.90;;;;;;5082120;28;20319;-55
2021/03/11 10:21:55;;;;;;;5.18;4.35;;;5.30;99.90;;;;;;5082231;28;20233;-55
2021/03/11 10:24:34;;;;;;;4.65;3.88;;;5.20;99.90;;;;;;5082740;28;20220;-57
2021/03/11 10:27:06;;;;;;;7.80;4.90;;;5.20;99.90;;;;;;5081189;28;20201;-58
2021/03/11 10:29:36;;;;;;;5.80;4.55;;;5.10;99.90;;;;;;5069638;28;20206;-53
2021/03/11 10:32:08;;;;;;;7.63;4.20;;;5.10;99.90;;;;;;5072316;28;20198;-57
2021/03/11 10:34:51;;;;;;;5.22;4.72;;;5.10;99.90;;;;;;5086411;28;20300;-56
2021/03/11 10:37:28;;;;;;;5.20;4.60;;;5.10;99.90;;;;;;5077120;28;20281;-56
2021/03/11 10:40:00;;;;;;;5.32;4.40;;;5.00;99.90;;;;;;5085507;28;20279;-56
2021/03/11 10:42:42;;;;;;;8.35;5.53;;;5.00;99.90;;;;;;5076256;28;20205;-54
2021/03/11 10:45:13;;;;;;;4.95;4.55;;;5.10;99.90;;;;;;5086422;28;20201;-55
2021/03/11 10:47:44;;;;;;;4.95;4.55;;;5.00;99.90;;;;;;5085512;28;20197;-56
2021/03/11 10:50:20;;;;;;;4.75;4.35;;;5.00;99.90;;;;;;5085789;28;20201;-57
2021/03/11 10:52:50;;;;;;;5.93;5.25;;;4.90;99.90;;;;;;5085654;28;20211;-57
2021/03/11 10:55:31;;;;;;;5.28;4.65;;;4.80;99.90;;;;;;5084845;28;20201;-56
2021/03/11 10:58:04;;;;;;;5.50;4.68;;;4.70;99.90;;;;;;5081013;28;20229;-57
2021/03/11 11:00:35;;;;;;;5.45;4.95;;;4.70;99.90;;;;;;5074691;28;20221;-57
2021/03/11 11:03:07;;;;;;;10.43;5.80;;;4.70;99.90;;;;;;5080432;28;20201;-56
2021/03/11 11:05:37;;;;;;;6.78;5.40;;;4.60;99.90;;;;;;5083522;28;20206;-56
2021/03/11 11:08:08;;;;;;;5.63;5.07;;;4.60;99.90;;;;;;5081613;28;20201;-57
2021/03/11 11:10:39;;;;;;;7.35;5.20;;;4.50;99.90;;;;;;5084073;28;20216;-55
2021/03/11 11:13:09;;;;;;;5.55;5.05;;;4.50;99.90;;;;;;5084442;28;20235;-57
2021/03/11 11:15:39;;;;;;;6.10;5.57;;;4.50;99.90;;;;;;5084822;28;20209;-58
2021/03/11 11:18:11;;;;;;;6.65;6.05;;;4.50;99.90;;;;;;5084445;28;20233;-56
2021/03/11 11:20:41;;;;;;;9.13;5.40;;;4.40;99.90;;;;;;5085415;28;20240;-56
2021/03/11 11:23:11;;;;;;;6.03;4.97;;;4.30;99.90;;;;;;5084472;28;20205;-56
2021/03/11 11:25:41;;;;;;;6.00;4.95;;;4.20;99.90;;;;;;5077229;28;20212;-57
2021/03/11 11:28:11;;;;;;;6.13;5.53;;;4.30;99.90;;;;;;5081334;28;20235;-56
2021/03/11 11:30:42;;;;;;;6.05;5.45;;;4.30;99.90;;;;;;5085528;28;20248;-56
2021/03/11 11:33:13;;;;;;;6.70;5.88;;;4.30;99.90;;;;;;5081292;28;20198;-55
2021/03/11 11:35:43;;;;;;;6.45;5.45;;;4.30;99.90;;;;;;5077666;28;20260;-56
2021/03/11 11:38:14;;;;;;;7.88;5.75;;;4.20;99.90;;;;;;5082512;28;20227;-56
2021/03/11 11:40:44;;;;;;;5.95;5.35;;;4.20;99.90;;;;;;5085337;28;20239;-56
2021/03/11 11:43:14;;;;;;;6.00;5.18;;;4.20;99.90;;;;;;5080789;28;20232;-56
2021/03/11 11:45:44;;;;;;;6.68;5.85;;;4.20;99.90;;;;;;5076119;28;20200;-54
2021/03/11 11:48:15;;;;;;;9.48;6.32;;;4.10;99.90;;;;;;5082876;28;20197;-56
2021/03/11 11:50:53;;;;;;;6.65;5.90;;;4.10;99.90;;;;;;5082495;28;20246;-57
2021/03/11 11:53:23;;;;;;;7.03;6.30;;;4.10;99.90;;;;;;5084308;28;20212;-57
2021/03/11 11:55:53;;;;;;;6.90;6.20;;;4.00;99.90;;;;;;5073460;28;20209;-57
2021/03/11 11:58:23;;;;;;;5.40;4.90;;;4.00;99.90;;;;;;5083865;28;20194;-57
2021/03/11 12:00:53;;;;;;;8.70;6.43;;;4.00;99.90;;;;;;5078866;28;20249;-57
2021/03/11 12:03:24;;;;;;;6.93;6.22;;;3.90;99.90;;;;;;5068759;28;20220;-56
2021/03/11 12:05:54;;;;;;;6.43;5.82;;;3.90;99.90;;;;;;5070896;28;20347;-57
2021/03/11 12:08:25;;;;;;;6.20;5.60;;;3.80;99.90;;;;;;5070562;28;20213;-56
2021/03/11 12:10:55;;;;;;;7.07;6.38;;;3.80;99.90;;;;;;5068806;28;20213;-55
2021/03/11 12:13:25;;;;;;;9.05;7.00;;;3.90;99.90;;;;;;5080029;28;20285;-57
2021/03/11 12:15:55;;;;;;;8.68;6.88;;;3.90;99.90;;;;;;5081031;28;20239;-56
2021/03/11 12:18:29;;;;;;;10.25;6.97;;;3.90;99.90;;;;;;5082802;28;20295;-57
2021/03/11 12:20:59;;;;;;;8.68;7.13;;;3.90;99.90;;;;;;5076938;28;20236;-57
2021/03/11 12:23:29;;;;;;;8.45;7.20;;;3.90;99.90;;;;;;5064929;28;20201;-56
2021/03/11 12:26:00;;;;;;;12.05;7.15;;;3.90;99.90;;;;;;5079796;28;20227;-59
2021/03/11 12:28:30;;;;;;;6.70;6.07;;;3.80;99.90;;;;;;5072995;28;20201;-57
2021/03/11 12:31:00;;;;;;;7.65;6.85;;;3.90;99.90;;;;;;5077344;28;20197;-57
2021/03/11 12:33:31;;;;;;;8.43;5.95;;;3.80;99.90;;;;;;5080970;28;20356;-58
2021/03/11 12:36:02;;;;;;;8.82;7.20;;;3.70;99.90;;;;;;5081270;28;20217;-56
2021/03/11 12:38:32;;;;;;;7.78;6.15;;;3.60;99.90;;;;;;5083103;28;20205;-56
2021/03/11 12:41:02;;;;;;;6.60;6.00;;;3.50;99.90;;;;;;5070978;28;20239;-58
2021/03/11 12:43:32;;;;;;;8.82;7.40;;;3.50;99.90;;;;;;5080773;28;20208;-57
2021/03/11 12:46:03;;;;;;;6.30;5.75;;;3.50;99.90;;;;;;5073635;28;20206;-58
2021/03/11 12:48:35;;;;;;;5.95;5.35;;;3.40;99.90;;;;;;5072293;28;20213;-57
2021/03/11 12:51:05;;;;;;;6.15;5.57;;;3.40;99.90;;;;;;5081007;28;20244;-55
2021/03/11 12:53:35;;;;;;;7.82;6.07;;;3.40;99.90;;;;;;5067965;28;20194;-55
2021/03/11 12:56:06;;;;;;;5.90;5.40;;;3.40;99.90;;;;;;5069268;28;20206;-53
2021/03/11 12:58:36;;;;;;;7.20;6.45;;;3.40;99.90;;;;;;5080028;28;20185;-54
2021/03/11 13:01:07;;;;;;;7.00;6.30;;;3.40;99.90;;;;;;5068204;28;20217;-56
2021/03/11 13:03:38;;;;;;;7.10;6.40;;;3.30;99.90;;;;;;5084026;28;20228;-56
2021/03/11 13:06:08;;;;;;;7.38;6.10;;;3.30;99.90;;;;;;5071270;28;20209;-56
2021/03/11 13:08:39;;;;;;;9.40;6.22;;;3.30;99.90;;;;;;5063832;28;20202;-56
2021/03/11 13:11:10;;;;;;;8.98;6.03;;;3.30;99.90;;;;;;5066822;28;20201;-53
2021/03/11 13:13:40;;;;;;;7.18;6.00;;;3.20;99.90;;;;;;5081982;28;20245;-55
2021/03/11 13:16:10;;;;;;;6.60;6.00;;;3.10;99.90;;;;;;5080470;28;20197;-54
2021/03/11 13:18:44;;;;;;;9.13;6.43;;;3.10;99.90;;;;;;5063641;28;20229;-53
2021/03/11 13:21:14;;;;;;;7.82;5.72;;;3.10;99.90;;;;;;5063220;28;20236;-55
2021/03/11 13:23:45;;;;;;;6.68;5.65;;;3.10;99.90;;;;;;5064142;28;20202;-55